Time;durP1;ratioP1;P1;durP2;ratioP2;P2;SDS_P1;SDS_P2;PMS_P1;PMS_P2;Temp;Humidity;BMP_temperature;BMP_pressure;BME280_temperature;BME280_humidity;BME280_pressure;Samples;Min_cycle;Max_cycle;Signal;HPM_P1;HPM_P2
2023/10/02 00:02:08;;;;;;;16.15;10.38;;;;;;;18.73;100.00;101945.09;5220617;28;20064;-72
2023/10/02 00:04:41;;;;;;;13.57;9.52;;;;;;;18.63;100.00;101929.22;5218308;28;20041;-71
2023/10/02 00:07:22;;;;;;;14.10;9.88;;;;;;;18.66;100.00;101934.22;5222532;28;20479;-71
2023/10/02 00:09:54;;;;;;;15.15;10.68;;;;;;;18.66;100.00;101937.69;5220774;28;20033;-72
2023/10/02 00:12:29;;;;;;;16.98;10.32;;;;;;;18.72;100.00;101936.28;5227788;28;20654;-71
2023/10/02 00:15:12;;;;;;;15.05;9.77;;;;;;;18.65;100.00;101948.50;5222684;28;20049;-71
2023/10/02 00:17:44;;;;;;;13.77;9.50;;;;;;;18.65;100.00;101935.22;5220809;28;20037;-71
2023/10/02 00:20:22;;;;;;;15.13;10.18;;;;;;;18.63;100.00;101942.50;5222155;28;20056;-71
2023/10/02 00:22:55;;;;;;;13.68;9.20;;;;;;;18.60;100.00;101942.78;5220048;28;20032;-71
2023/10/02 00:25:27;;;;;;;16.05;9.90;;;;;;;18.58;100.00;101950.09;5220451;28;20062;-72
2023/10/02 00:28:00;;;;;;;13.60;9.65;;;;;;;18.55;100.00;101937.97;5218839;28;20038;-71
2023/10/02 00:30:36;;;;;;;15.00;9.93;;;;;;;18.57;100.00;101943.13;5220263;28;20026;-71
2023/10/02 00:33:11;;;;;;;16.63;9.30;;;;;;;18.53;100.00;101942.59;5221666;28;20036;-70
2023/10/02 00:35:52;;;;;;;15.25;10.13;;;;;;;18.50;100.00;101945.56;5220912;28;20040;-72
2023/10/02 00:38:24;;;;;;;15.55;10.00;;;;;;;18.49;100.00;101941.25;5226895;28;20439;-71
2023/10/02 00:40:56;;;;;;;14.25;9.45;;;;;;;18.50;100.00;101939.44;5222062;28;20037;-71
2023/10/02 00:43:34;;;;;;;14.75;9.52;;;;;;;18.45;100.00;101935.44;5221493;28;20033;-71
2023/10/02 00:46:06;;;;;;;14.98;9.50;;;;;;;18.39;100.00;101940.50;5219878;28;20033;-71
2023/10/02 00:48:39;;;;;;;15.50;9.68;;;;;;;18.36;100.00;101936.34;5219564;28;20559;-71
2023/10/02 00:51:11;;;;;;;14.82;10.00;;;;;;;18.28;100.00;101938.94;5221756;28;20033;-72
2023/10/02 00:53:48;;;;;;;14.88;9.98;;;;;;;18.21;100.00;101932.56;5220205;28;20057;-71
2023/10/02 00:56:20;;;;;;;14.48;9.60;;;;;;;18.20;100.00;101931.75;5219814;28;20037;-71
2023/10/02 00:58:55;;;;;;;13.70;8.50;;;;;;;18.20;100.00;101931.75;5220246;28;20104;-72
2023/10/02 01:01:31;;;;;;;13.68;8.98;;;;;;;18.21;100.00;101933.41;5220445;28;20041;-71
2023/10/02 01:04:09;;;;;;;14.15;9.10;;;;;;;18.02;100.00;101932.75;5217664;28;20408;-71
2023/10/02 01:09:35;;;;;;;;;;;;;;;18.90;100.00;101922.94;5223994;28;20494;-72
2023/10/02 01:12:10;;;;;;;13.25;8.80;;;;;;;17.96;100.00;101918.28;5222338;28;19982;-72
2023/10/02 01:14:51;;;;;;;14.60;9.50;;;;;;;17.94;100.00;101921.06;5221957;28;20044;-71
2023/10/02 01:17:23;;;;;;;14.82;9.57;;;;;;;17.91;100.00;101918.72;5226329;28;20041;-72
2023/10/02 01:20:01;;;;;;;15.77;9.93;;;;;;;17.96;100.00;101921.78;5222882;28;20033;-71
2023/10/02 01:22:42;;;;;;;15.20;9.70;;;;;;;18.16;100.00;101914.47;5222639;28;20053;-71
2023/10/02 01:25:14;;;;;;;14.57;9.40;;;;;;;18.00;100.00;101914.34;5226291;28;20033;-71
2023/10/02 01:27:50;;;;;;;16.10;9.57;;;;;;;18.06;100.00;101913.72;5222566;28;20040;-71
2023/10/02 01:30:24;;;;;;;15.25;9.50;;;;;;;18.04;100.00;101917.53;5225630;28;20037;-71
2023/10/02 01:33:06;;;;;;;15.55;9.45;;;;;;;18.15;100.00;101920.78;5223100;28;20037;-72
2023/10/02 01:35:46;;;;;;;15.45;9.73;;;;;;;18.08;100.00;101908.28;5224746;28;20475;-71
2023/10/02 01:38:27;;;;;;;13.73;9.30;;;;;;;18.20;100.00;101917.66;5224208;28;20046;-71
2023/10/02 01:41:04;;;;;;;14.57;9.65;;;;;;;18.04;100.00;101914.88;5223709;28;20042;-72
2023/10/02 01:43:39;;;;;;;15.07;9.20;;;;;;;18.02;100.00;101916.84;5224929;28;20045;-72
2023/10/02 01:46:17;;;;;;;15.73;9.63;;;;;;;18.04;100.00;101918.34;5224959;28;20048;-71
2023/10/02 01:48:50;;;;;;;15.38;9.70;;;;;;;18.02;100.00;101915.00;5222719;28;20037;-71
2023/10/02 01:51:25;;;;;;;16.48;10.50;;;;;;;18.02;100.00;101908.88;5224698;28;20048;-71
2023/10/02 01:54:03;;;;;;;14.75;9.52;;;;;;;18.00;100.00;101919.66;5223494;28;20025;-72
2023/10/02 01:56:35;;;;;;;13.55;9.55;;;;;;;18.02;100.00;101912.34;5223588;28;20044;-71
2023/10/02 01:59:10;;;;;;;17.70;9.63;;;;;;;17.99;100.00;101915.31;5222540;28;20466;-70
2023/10/02 02:01:55;;;;;;;13.18;8.85;;;;;;;17.97;100.00;101898.72;5223955;28;20037;-73
2023/10/02 02:04:28;;;;;;;15.38;9.52;;;;;;;17.98;100.00;101908.34;5222488;28;20962;-73
2023/10/02 02:07:01;;;;;;;16.13;9.20;;;;;;;17.96;100.00;101907.69;5221514;28;20411;-72
2023/10/02 02:09:37;;;;;;;16.52;10.55;;;;;;;18.01;100.00;101902.75;5223408;28;20029;-71
2023/10/02 02:12:10;;;;;;;15.02;9.93;;;;;;;18.00;100.00;101903.75;5224826;28;20407;-71
2023/10/02 02:14:49;;;;;;;14.07;9.35;;;;;;;18.07;100.00;101904.78;5222062;28;20056;-71
2023/10/02 02:17:23;;;;;;;13.40;9.20;;;;;;;17.95;100.00;101912.13;5225226;28;20041;-71
2023/10/02 02:19:59;;;;;;;14.82;9.38;;;;;;;17.90;100.00;101913.59;5222903;28;20490;-72
2023/10/02 02:22:32;;;;;;;16.00;9.57;;;;;;;17.86;100.00;101910.41;5223162;28;20038;-72
2023/10/02 02:25:04;;;;;;;15.43;9.52;;;;;;;17.84;100.00;101907.09;5224970;28;20033;-72
2023/10/02 02:27:36;;;;;;;15.88;10.00;;;;;;;17.82;100.00;101900.25;5223595;28;20054;-72
2023/10/02 02:30:10;;;;;;;20.87;9.80;;;;;;;17.82;100.00;101905.56;5223752;28;20065;-72
2023/10/02 02:32:52;;;;;;;15.15;9.23;;;;;;;17.77;100.00;101902.50;5223342;28;20022;-71
2023/10/02 02:35:26;;;;;;;18.48;9.88;;;;;;;17.80;100.00;101907.50;5223536;28;20028;-72
2023/10/02 02:37:58;;;;;;;14.63;9.68;;;;;;;17.74;100.00;101909.75;5222871;28;20037;-72
2023/10/02 02:40:32;;;;;;;13.98;9.63;;;;;;;17.75;100.00;101907.97;5223423;28;20099;-72
2023/10/02 02:43:12;;;;;;;16.55;10.57;;;;;;;17.72;100.00;101892.34;5222512;28;20037;-72
2023/10/02 02:45:45;;;;;;;13.52;9.23;;;;;;;17.73;100.00;101892.19;5222969;28;20057;-71
2023/10/02 02:48:17;;;;;;;14.05;9.45;;;;;;;17.78;100.00;101888.28;5223800;28;20029;-72
2023/10/02 02:50:49;;;;;;;15.52;10.02;;;;;;;17.76;100.00;101891.06;5223151;28;20038;-72
2023/10/02 02:53:21;;;;;;;16.02;10.73;;;;;;;17.78;100.00;101888.28;5222195;28;20037;-72
2023/10/02 02:56:22;;;;;;;13.93;9.68;;;;;;;17.93;100.00;101887.59;5223951;28;20040;-72
2023/10/02 02:58:58;;;;;;;15.25;9.23;;;;;;;17.78;100.00;101893.59;5221435;28;20042;-72
2023/10/02 03:01:30;;;;;;;15.45;9.70;;;;;;;17.70;100.00;101889.84;5222909;28;20040;-72
2023/10/02 03:04:11;;;;;;;16.40;10.32;;;;;;;17.77;100.00;101894.56;5221671;28;20030;-71
2023/10/02 03:06:43;;;;;;;15.45;9.85;;;;;;;17.68;100.00;101883.03;5222528;28;20025;-72
2023/10/02 03:09:23;;;;;;;15.35;9.55;;;;;;;17.73;100.00;101886.06;5220541;28;20044;-71
2023/10/02 03:11:55;;;;;;;14.32;9.45;;;;;;;17.74;100.00;101883.25;5223268;28;20026;-71
2023/10/02 03:14:29;;;;;;;14.90;9.85;;;;;;;17.76;100.00;101880.47;5222825;28;20049;-71
2023/10/02 03:17:28;;;;;;;14.45;8.43;;;;;;;17.74;100.00;101875.31;5222669;28;20041;-71
2023/10/02 03:19:52;;;;;;;15.63;9.10;;;;;;;17.75;100.00;101871.69;5223722;28;20037;-71
2023/10/02 03:22:27;;;;;;;14.63;9.13;;;;;;;17.71;100.00;101867.66;5222093;28;20030;-72
2023/10/02 03:25:25;;;;;;;14.50;9.52;;;;;;;17.74;100.00;101861.22;5223276;28;20040;-72
2023/10/02 03:27:54;;;;;;;15.68;9.10;;;;;;;17.75;100.00;101857.63;5221114;28;20491;-71
2023/10/02 03:30:35;;;;;;;17.13;10.13;;;;;;;17.72;100.00;101869.31;5222132;28;20056;-72
2023/10/02 03:33:17;;;;;;;14.40;9.45;;;;;;;17.70;100.00;101870.47;5219996;28;20399;-71
2023/10/02 03:36:10;;;;;;;16.05;9.13;;;;;;;17.70;100.00;101871.31;5222345;28;20495;-72
2023/10/02 03:38:42;;;;;;;15.65;10.02;;;;;;;17.75;100.00;101863.75;5222169;28;20029;-71
2023/10/02 03:41:14;;;;;;;15.05;9.50;;;;;;;17.66;100.00;101863.81;5221710;28;20101;-71
2023/10/02 03:43:49;;;;;;;14.63;9.15;;;;;;;17.74;100.00;101866.53;5217158;28;20602;-72
2023/10/02 03:46:35;;;;;;;14.80;8.77;;;;;;;17.70;100.00;101868.66;5222597;28;20053;-72
2023/10/02 03:49:08;;;;;;;16.48;10.15;;;;;;;17.70;100.00;101871.31;5220916;28;20049;-72
2023/10/02 03:51:40;;;;;;;17.45;10.75;;;;;;;17.69;100.00;101866.13;5222330;28;20383;-71
2023/10/02 03:54:18;;;;;;;15.80;9.57;;;;;;;17.66;100.00;101871.75;5220752;28;20093;-72
2023/10/02 03:56:51;;;;;;;16.33;9.40;;;;;;;17.62;100.00;101865.94;5221335;28;20040;-71
2023/10/02 03:59:26;;;;;;;17.40;10.70;;;;;;;17.66;100.00;101877.06;5219945;28;20048;-71
2023/10/02 04:02:24;;;;;;;13.45;8.88;;;;;;;17.61;100.00;101868.72;5221534;28;20037;-71
2023/10/02 04:04:51;;;;;;;16.55;9.95;;;;;;;17.70;100.00;101871.31;5217209;28;20037;-72
2023/10/02 04:07:25;;;;;;;14.27;9.07;;;;;;;17.69;100.00;101872.28;5222556;28;20385;-72
2023/10/02 04:09:59;;;;;;;15.60;10.07;;;;;;;17.68;100.00;101870.59;5221389;28;20041;-72
2023/10/02 04:12:32;;;;;;;17.08;9.27;;;;;;;17.67;100.00;101870.75;5219847;28;20037;-71
2023/10/02 04:15:21;;;;;;;18.20;10.68;;;;;;;17.69;100.00;101869.63;5221743;28;20037;-72
2023/10/02 04:17:53;;;;;;;18.05;10.85;;;;;;;17.66;100.00;101864.63;5221812;28;20043;-72
2023/10/02 04:20:28;;;;;;;16.65;9.43;;;;;;;17.68;100.00;101865.31;5220176;28;20037;-72
2023/10/02 04:23:21;;;;;;;17.70;10.77;;;;;;;17.63;100.00;101867.59;5224131;28;20033;-71
2023/10/02 04:25:51;;;;;;;16.30;10.02;;;;;;;17.66;100.00;101866.47;5220257;28;20049;-71
2023/10/02 04:28:27;;;;;;;15.57;9.82;;;;;;;17.64;100.00;101865.75;5220649;28;20403;-72
2023/10/02 04:31:05;;;;;;;16.30;10.85;;;;;;;17.62;100.00;101865.09;5224393;28;20080;-71
2023/10/02 04:33:38;;;;;;;15.68;10.65;;;;;;;17.65;100.00;101868.28;5221130;28;20040;-72
2023/10/02 04:36:13;;;;;;;15.50;10.00;;;;;;;17.75;100.00;101861.09;5220611;28;20033;-71
2023/10/02 04:38:49;;;;;;;16.85;10.40;;;;;;;17.65;100.00;101862.97;5220294;28;20459;-72
2023/10/02 04:41:26;;;;;;;16.08;10.82;;;;;;;17.62;100.00;101855.31;5219937;28;20037;-72
2023/10/02 04:43:58;;;;;;;16.45;10.43;;;;;;;17.61;100.00;101861.59;5222278;28;20033;-72
2023/10/02 04:46:33;;;;;;;15.82;9.75;;;;;;;17.61;100.00;101861.59;5220492;28;20026;-72
2023/10/02 04:49:07;;;;;;;19.35;11.13;;;;;;;17.60;100.00;101861.75;5219815;28;20471;-72
2023/10/02 04:51:46;;;;;;;14.93;10.07;;;;;;;17.56;100.00;101861.22;5221615;28;20033;-72
2023/10/02 04:54:18;;;;;;;15.02;10.05;;;;;;;17.52;100.00;101870.47;5220454;28;20038;-72
2023/10/02 04:57:08;;;;;;;18.13;11.10;;;;;;;17.52;100.00;101862.50;5221418;28;20516;-72
2023/10/02 04:59:51;;;;;;;13.77;9.60;;;;;;;17.48;100.00;101856.66;5219948;28;20033;-72
2023/10/02 05:02:24;;;;;;;16.83;10.50;;;;;;;17.46;100.00;101857.78;5221380;28;20033;-72
2023/10/02 05:04:56;;;;;;;16.25;10.57;;;;;;;17.41;100.00;101854.78;5219450;28;20029;-72
2023/10/02 05:07:28;;;;;;;16.35;10.98;;;;;;;17.39;100.00;101854.09;5225115;28;20042;-72
2023/10/02 05:10:06;;;;;;;19.63;10.57;;;;;;;17.33;100.00;101846.75;5219686;28;20616;-73
2023/10/02 05:12:44;;;;;;;16.40;10.13;;;;;;;17.36;100.00;101854.41;5219327;28;20383;-72
2023/10/02 05:15:20;;;;;;;18.10;10.18;;;;;;;17.34;100.00;101848.41;5219894;28;20045;-72
2023/10/02 05:17:52;;;;;;;19.40;10.82;;;;;;;17.32;100.00;101859.16;5220515;28;20034;-72
2023/10/02 05:20:26;;;;;;;16.08;10.80;;;;;;;17.27;100.00;101854.31;5219547;28;20040;-73
2023/10/02 05:22:58;;;;;;;17.48;10.63;;;;;;;17.23;100.00;101863.53;5219797;28;20026;-71
2023/10/02 05:25:33;;;;;;;16.95;10.55;;;;;;;17.18;100.00;101865.78;5219613;28;20034;-71
2023/10/02 05:28:05;;;;;;;17.02;10.25;;;;;;;17.21;100.00;101865.50;5218788;28;20064;-71
2023/10/02 05:30:43;;;;;;;15.82;10.20;;;;;;;17.32;100.00;101861.00;5220861;28;20045;-72
2023/10/02 05:33:36;;;;;;;14.95;10.15;;;;;;;17.12;100.00;101861.09;5221011;28;20034;-72
2023/10/02 05:36:08;;;;;;;15.38;9.60;;;;;;;17.11;100.00;101869.19;5221048;28;20038;-72
2023/10/02 05:39:04;;;;;;;17.58;10.35;;;;;;;17.08;100.00;101861.53;5219245;28;20485;-72
2023/10/02 05:41:44;;;;;;;16.80;10.10;;;;;;;17.00;100.00;101857.78;5217891;28;20504;-70
2023/10/02 05:44:25;;;;;;;17.27;11.07;;;;;;;17.06;100.00;101858.22;5217278;28;20045;-72
2023/10/02 05:47:05;;;;;;;16.13;10.63;;;;;;;16.98;100.00;101862.41;5219099;28;20040;-72
2023/10/02 05:49:47;;;;;;;16.90;10.70;;;;;;;16.99;100.00;101864.09;5217100;28;20531;-71
2023/10/02 05:52:20;;;;;;;20.15;11.02;;;;;;;17.01;100.00;101872.72;5217302;28;20029;-71
2023/10/02 05:54:55;;;;;;;17.90;11.05;;;;;;;16.95;100.00;101877.75;5219869;28;20432;-71
2023/10/02 05:57:31;;;;;;;17.67;10.27;;;;;;;16.98;100.00;101886.25;5219479;28;20033;-71
2023/10/02 06:00:06;;;;;;;17.23;10.18;;;;;;;16.96;100.00;101880.25;5218962;28;20026;-71
2023/10/02 06:02:56;;;;;;;16.42;10.32;;;;;;;16.99;100.00;101887.91;5226862;28;20064;-71
2023/10/02 06:05:29;;;;;;;17.65;11.18;;;;;;;16.98;100.00;101886.25;5221934;28;20368;-71
2023/10/02 06:08:05;;;;;;;16.30;9.95;;;;;;;17.04;100.00;101884.81;5221112;28;20396;-71
2023/10/02 06:10:44;;;;;;;19.55;11.30;;;;;;;17.01;100.00;101875.38;5222871;28;20033;-71
2023/10/02 06:13:16;;;;;;;16.75;10.98;;;;;;;17.09;100.00;101882.56;5224711;28;20018;-71
2023/10/02 06:15:49;;;;;;;18.17;10.30;;;;;;;17.07;100.00;101876.59;5221277;28;20810;-71
2023/10/02 06:18:30;;;;;;;18.73;11.07;;;;;;;17.16;100.00;101880.16;5222422;28;20049;-71
2023/10/02 06:21:02;;;;;;;16.65;10.32;;;;;;;17.12;100.00;101884.94;5224044;28;20043;-71
2023/10/02 06:23:37;;;;;;;17.33;11.50;;;;;;;17.20;100.00;101885.03;5223890;28;20029;-71
2023/10/02 06:26:09;;;;;;;17.83;11.15;;;;;;;17.21;100.00;101886.69;5223818;28;20045;-71
2023/10/02 06:28:41;;;;;;;18.90;11.57;;;;;;;17.25;100.00;101888.06;5221018;28;20053;-72
2023/10/02 06:31:24;;;;;;;20.40;11.20;;;;;;;17.29;100.00;101883.28;5221208;28;20040;-71
2023/10/02 06:34:05;;;;;;;17.73;11.75;;;;;;;17.31;100.00;101891.09;5224537;28;20755;-72
2023/10/02 06:36:48;;;;;;;19.48;12.23;;;;;;;17.44;100.00;101886.28;5219127;28;20034;-71
2023/10/02 06:39:21;;;;;;;19.42;12.23;;;;;;;17.42;100.00;101888.22;5224508;28;20032;-72
2023/10/02 06:41:53;;;;;;;21.10;12.85;;;;;;;17.41;100.00;101891.88;5221436;28;20030;-72
2023/10/02 06:44:30;;;;;;;19.25;11.77;;;;;;;17.44;100.00;101889.75;5221295;28;20068;-71
2023/10/02 06:47:04;;;;;;;20.25;11.88;;;;;;;17.53;100.00;101895.97;5221060;28;20045;-71
2023/10/02 06:49:36;;;;;;;17.85;11.77;;;;;;;17.56;100.00;101894.84;5224312;28;20105;-72
2023/10/02 06:52:17;;;;;;;19.50;12.10;;;;;;;17.58;100.00;101898.16;5222116;28;20032;-72
2023/10/02 06:54:49;;;;;;;17.48;12.48;;;;;;;17.64;100.00;101901.03;5222859;28;20050;-71
2023/10/02 06:57:24;;;;;;;21.73;13.23;;;;;;;17.69;100.00;101904.09;5223930;28;20029;-72
2023/10/02 06:59:56;;;;;;;19.15;12.60;;;;;;;17.72;100.00;101897.63;5222126;28;20060;-72
2023/10/02 07:02:29;;;;;;;18.00;11.70;;;;;;;17.80;100.00;101896.91;5223554;28;20395;-72
2023/10/02 07:05:01;;;;;;;18.63;12.48;;;;;;;17.86;100.00;101894.50;5221231;28;20088;-72
2023/10/02 07:07:33;;;;;;;20.00;12.80;;;;;;;17.93;100.00;101889.44;5218763;28;20041;-72
2023/10/02 07:10:08;;;;;;;21.20;12.10;;;;;;;17.93;100.00;101886.78;5219567;28;20420;-72
2023/10/02 07:12:40;;;;;;;21.77;12.85;;;;;;;18.04;100.00;101891.00;5219517;28;20045;-72
2023/10/02 07:15:13;;;;;;;20.90;11.65;;;;;;;18.05;100.00;101890.84;5218126;28;20421;-72
2023/10/02 07:17:47;;;;;;;19.23;12.65;;;;;;;18.15;100.00;101886.28;5224207;28;20029;-72
2023/10/02 07:20:20;;;;;;;19.65;12.23;;;;;;;18.20;100.00;101886.66;5221747;28;20042;-72
2023/10/02 07:22:53;;;;;;;19.50;12.43;;;;;;;18.33;100.00;101885.41;5220936;28;20026;-72
2023/10/02 07:25:26;;;;;;;17.58;11.32;;;;;;;18.41;100.00;101888.09;5223380;28;20045;-72
2023/10/02 07:27:58;;;;;;;19.33;12.15;;;;;;;18.55;100.00;101881.41;5220717;28;20049;-72
2023/10/02 07:30:30;;;;;;;19.10;11.98;;;;;;;18.66;100.00;101878.47;5221989;28;20410;-72
2023/10/02 07:33:04;;;;;;;18.67;12.15;;;;;;;18.85;100.00;101875.63;5223895;28;20029;-72
2023/10/02 07:35:36;;;;;;;19.80;12.70;;;;;;;18.90;100.00;101894.56;5222128;28;20037;-72
2023/10/02 07:38:09;;;;;;;19.10;11.52;;;;;;;19.03;100.00;101890.63;5221121;28;20032;-72
2023/10/02 07:40:48;;;;;;;16.67;11.48;;;;;;;19.12;100.00;101890.50;5222004;28;20054;-72
2023/10/02 07:43:20;;;;;;;22.33;12.20;;;;;;;19.20;100.00;101895.00;5221226;28;20037;-72
2023/10/02 07:46:14;;;;;;;21.55;11.90;;;;;;;19.27;100.00;101901.34;5221445;28;20052;-72
2023/10/02 07:48:57;;;;;;;17.95;11.73;;;;;;;19.30;100.00;101892.22;5222067;28;20344;-72
2023/10/02 07:51:32;;;;;;;20.45;12.63;;;;;;;19.37;100.00;101895.91;5221012;28;20029;-72
2023/10/02 07:54:08;;;;;;;18.80;11.73;;;;;;;19.38;100.00;101881.59;5223155;28;20029;-72
2023/10/02 07:56:41;;;;;;;19.33;12.07;;;;;;;19.39;100.00;101881.44;5223913;28;20033;-72
2023/10/02 07:59:14;;;;;;;;;;;;;;;20.20;100.00;101884.38;5219451;28;20045;-72
2023/10/02 08:01:45;;;;;;;18.48;11.57;;;;;;;19.50;100.00;101882.94;5221325;28;20283;-72
2023/10/02 08:04:17;;;;;;;18.80;11.25;;;;;;;19.52;100.00;101891.59;5222017;28;20033;-73
2023/10/02 08:06:49;;;;;;;19.30;12.40;;;;;;;19.54;100.00;101881.63;5218475;28;20483;-72
2023/10/02 08:09:37;;;;;;;20.30;12.00;;;;;;;19.53;100.00;101874.66;5222775;28;20025;-72
2023/10/02 08:12:09;;;;;;;18.77;12.05;;;;;;;19.49;100.00;101883.97;5222276;28;20042;-72
2023/10/02 08:14:42;;;;;;;21.13;12.50;;;;;;;19.58;100.00;101888.28;5215046;28;20514;-72
2023/10/02 08:17:21;;;;;;;20.33;11.73;;;;;;;19.59;100.00;101899.78;5222813;28;20045;-72
2023/10/02 08:19:56;;;;;;;19.55;12.50;;;;;;;19.66;100.00;101904.31;5221321;28;20033;-72
2023/10/02 08:22:44;;;;;;;21.35;12.20;;;;;;;19.72;100.00;101894.00;5220052;28;20038;-72
2023/10/02 08:25:16;;;;;;;19.55;11.60;;;;;;;19.81;100.00;101901.81;5222687;28;20499;-72
2023/10/02 08:27:55;;;;;;;20.97;13.43;;;;;;;19.96;100.00;101899.31;5219565;28;20036;-72
2023/10/02 08:30:31;;;;;;;19.70;11.50;;;;;;;20.03;100.00;101892.34;5220409;28;20041;-72
2023/10/02 08:33:07;;;;;;;20.70;12.38;;;;;;;20.38;100.00;101899.13;5217354;28;20026;-72
2023/10/02 08:35:46;;;;;;;18.30;11.73;;;;;;;20.42;100.00;101896.97;5220554;28;20041;-72
2023/10/02 08:38:25;;;;;;;20.33;11.77;;;;;;;20.71;100.00;101893.75;5219749;28;20486;-72
2023/10/02 08:41:03;;;;;;;17.90;11.70;;;;;;;21.04;100.00;101894.47;5220347;28;20033;-72
2023/10/02 08:43:45;;;;;;;17.95;11.63;;;;;;;21.09;100.00;101892.09;5219615;28;20056;-72
2023/10/02 08:46:21;;;;;;;21.20;11.25;;;;;;;21.28;100.00;101892.69;5220705;28;20482;-72
2023/10/02 08:48:56;;;;;;;18.77;11.57;;;;;;;21.38;100.00;101898.66;5222804;28;20761;-72
2023/10/02 08:51:35;;;;;;;16.27;11.10;;;;;;;21.70;100.00;101894.94;5217865;28;20029;-72
2023/10/02 08:54:08;;;;;;;17.85;11.73;;;;;;;21.65;100.00;101883.97;5219808;28;20040;-72
2023/10/02 08:56:48;;;;;;;19.15;11.20;;;;;;;21.71;100.00;101883.28;5218774;28;20037;-72
2023/10/02 08:59:26;;;;;;;18.83;11.38;;;;;;;21.77;100.00;101876.38;5217000;28;20064;-72
2023/10/02 09:02:26;;;;;;;17.05;11.30;;;;;;;22.19;100.00;101873.22;5221206;28;20472;-72
2023/10/02 09:05:09;;;;;;;19.23;11.50;;;;;;;22.11;100.00;101878.59;5215224;28;20061;-72
2023/10/02 09:10:34;;;;;;;20.25;12.10;;;;;;;21.99;100.00;101880.88;5220680;28;20049;-72
2023/10/02 09:13:13;;;;;;;17.42;11.43;;;;;;;22.15;100.00;101887.09;5219893;28;20026;-72
2023/10/02 09:15:47;;;;;;;17.52;11.65;;;;;;;22.01;100.00;101886.03;5217241;28;20048;-72
2023/10/02 09:19:07;;;;;;;17.45;11.32;;;;;;;22.25;100.00;101887.69;5219164;28;20379;-72
2023/10/02 09:21:40;;;;;;;19.65;11.18;;;;;;;22.28;100.00;101882.00;5220160;28;20042;-72
2023/10/02 09:24:19;;;;;;;19.73;11.40;;;;;;;22.22;100.00;101888.88;5219413;28;20037;-72
2023/10/02 09:26:51;;;;;;;17.67;11.02;;;;;;;21.98;100.00;101875.72;5218566;28;20037;-73
2023/10/02 09:29:23;;;;;;;16.85;10.70;;;;;;;22.07;100.00;101880.81;5214925;28;20041;-73
2023/10/02 09:31:55;;;;;;;19.87;12.20;;;;;;;22.08;100.00;101887.78;5220526;28;20370;-73
2023/10/02 09:34:29;;;;;;;20.50;12.02;;;;;;;22.08;100.00;101887.78;5217524;28;20635;-73
2023/10/02 09:37:11;;;;;;;18.08;12.02;;;;;;;22.07;100.00;101886.13;5217968;28;20054;-73
2023/10/02 09:39:43;;;;;;;17.58;11.18;;;;;;;22.08;100.00;101886.97;5223754;28;20022;-72
2023/10/02 09:42:15;;;;;;;17.10;12.13;;;;;;;22.06;100.00;101886.34;5227351;28;20029;-73
2023/10/02 09:44:49;;;;;;;23.03;12.23;;;;;;;22.01;100.00;101886.88;5223663;28;20101;-73
2023/10/02 09:47:21;;;;;;;17.55;12.07;;;;;;;22.08;100.00;101885.13;5224189;28;20404;-73
2023/10/02 09:50:11;;;;;;;18.63;11.27;;;;;;;22.27;100.00;101878.47;5225350;28;20801;-73
2023/10/02 09:52:58;;;;;;;20.23;12.68;;;;;;;22.49;100.00;101870.56;5224101;28;20041;-73
2023/10/02 09:55:46;;;;;;;19.20;12.27;;;;;;;22.86;100.00;101877.66;5223548;28;20041;-73
2023/10/02 09:58:34;;;;;;;19.55;12.15;;;;;;;23.11;100.00;101882.72;5222577;28;20044;-73
2023/10/02 10:01:34;;;;;;;19.00;11.68;;;;;;;23.11;100.00;101885.38;5222832;28;20030;-73
2023/10/02 10:04:32;;;;;;;20.15;12.88;;;;;;;23.17;100.00;101873.94;5222715;28;20046;-72
2023/10/02 10:07:46;;;;;;;19.67;12.98;;;;;;;23.41;100.00;101876.28;5222589;28;20045;-72
2023/10/02 10:10:27;;;;;;;23.67;12.40;;;;;;;23.78;100.00;101874.41;5219003;28;20049;-72
2023/10/02 10:13:09;;;;;;;20.35;12.85;;;;;;;23.55;100.00;101859.34;5224777;28;20692;-72
2023/10/02 10:15:43;;;;;;;19.77;12.15;;;;;;;23.71;100.00;101865.47;5222697;28;20030;-72
2023/10/02 10:18:17;;;;;;;19.70;12.98;;;;;;;23.61;100.00;101868.47;5220165;28;20041;-72
2023/10/02 10:20:54;;;;;;;17.67;12.27;;;;;;;23.68;100.00;101855.19;5221455;28;20033;-73
2023/10/02 10:23:31;;;;;;;19.58;12.40;;;;;;;23.70;100.00;101863.81;5224507;28;20048;-73
2023/10/02 10:26:09;;;;;;;19.80;11.43;;;;;;;23.93;100.00;101852.91;5223109;28;20029;-73
2023/10/02 10:28:53;;;;;;;19.77;12.48;;;;;;;23.97;100.00;101852.31;5218986;28;20502;-73
2023/10/02 10:31:27;;;;;;;19.48;11.93;;;;;;;24.03;100.00;101850.72;5217370;28;20045;-73
2023/10/02 10:33:59;;;;;;;19.13;11.85;;;;;;;24.08;100.00;101853.63;5216924;28;20029;-73
2023/10/02 10:36:41;;;;;;;20.77;12.10;;;;;;;24.30;100.00;101849.06;5222305;28;20048;-73
2023/10/02 10:39:52;;;;;;;20.00;11.23;;;;;;;24.74;100.00;101848.72;5219042;28;20295;-73
2023/10/02 10:42:24;;;;;;;20.45;12.98;;;;;;;24.35;100.00;101843.94;5220501;28;20042;-73
2023/10/02 10:44:55;;;;;;;20.25;12.10;;;;;;;24.49;100.00;101844.88;5221377;28;20045;-73
2023/10/02 10:47:37;;;;;;;18.10;11.45;;;;;;;24.59;100.00;101840.00;5220004;28;20496;-74
2023/10/02 10:50:14;;;;;;;19.13;10.90;;;;;;;24.38;100.00;101848.91;5221677;28;20529;-73
2023/10/02 10:52:45;;;;;;;19.17;12.23;;;;;;;24.30;100.00;101837.53;5223874;28;20391;-74
2023/10/02 10:55:32;;;;;;;21.27;11.57;;;;;;;24.42;100.00;101827.94;5223604;28;20042;-73
2023/10/02 10:58:04;;;;;;;21.48;12.48;;;;;;;24.37;100.00;101836.53;5220873;28;20292;-74
2023/10/02 11:00:39;;;;;;;15.80;11.20;;;;;;;24.45;100.00;101838.25;5224650;28;20037;-74
2023/10/02 11:03:14;;;;;;;17.90;11.80;;;;;;;24.41;100.00;101832.47;5221199;28;20293;-74
2023/10/02 11:05:46;;;;;;;20.00;11.27;;;;;;;24.44;100.00;101837.44;5221259;28;20029;-74
2023/10/02 11:08:25;;;;;;;17.05;11.05;;;;;;;24.49;100.00;101831.47;5220834;28;20030;-74
2023/10/02 11:11:00;;;;;;;18.80;11.32;;;;;;;24.55;100.00;101827.16;5223086;28;20309;-74
2023/10/02 11:13:52;;;;;;;19.60;12.65;;;;;;;24.66;100.00;101829.28;5219279;28;20041;-74
2023/10/02 11:16:34;;;;;;;18.90;12.05;;;;;;;24.72;100.00;101832.00;5223472;28;20061;-74
2023/10/02 11:19:21;;;;;;;17.38;10.95;;;;;;;24.92;100.00;101818.66;5222590;28;20032;-74
2023/10/02 11:22:16;;;;;;;20.80;11.93;;;;;;;25.11;100.00;101819.78;5221522;28;20036;-74
2023/10/02 11:24:53;;;;;;;19.33;11.43;;;;;;;25.29;100.00;101819.19;5217530;28;20367;-74
2023/10/02 11:27:29;;;;;;;19.55;11.52;;;;;;;25.31;99.14;101813.66;5222261;28;20034;-74
2023/10/02 11:30:06;;;;;;;18.55;11.68;;;;;;;25.59;98.24;101810.78;5220650;28;20045;-74
2023/10/02 11:32:58;;;;;;;16.77;11.13;;;;;;;25.92;97.81;101808.94;5222265;28;20488;-74
2023/10/02 11:35:43;;;;;;;19.20;11.20;;;;;;;25.80;94.30;101809.75;5221550;28;20037;-74
2023/10/02 11:38:22;;;;;;;18.55;11.73;;;;;;;26.05;95.78;101807.25;5221503;28;20033;-73
2023/10/02 11:40:54;;;;;;;16.05;10.63;;;;;;;26.00;95.16;101801.69;5220117;28;20033;-73
2023/10/02 11:43:26;;;;;;;18.80;11.07;;;;;;;26.06;91.96;101808.91;5222388;28;20403;-72
2023/10/02 11:45:58;;;;;;;17.55;11.35;;;;;;;26.08;92.16;101804.97;5220072;28;20033;-73
2023/10/02 11:48:30;;;;;;;16.60;10.98;;;;;;;26.24;94.02;101806.38;5218580;28;20033;-73
2023/10/02 11:51:02;;;;;;;18.67;11.30;;;;;;;26.26;93.04;101796.25;5220452;28;20463;-73
2023/10/02 11:53:34;;;;;;;17.90;10.68;;;;;;;26.37;88.50;101786.72;5220215;28;20036;-72
2023/10/02 11:56:06;;;;;;;;;;;;;;;27.23;89.90;101780.13;5223694;28;20479;-73